sensor_id;sensor_type;location;lat;lon;timestamp;P1;durP1;ratioP1;P2;durP2;ratioP2
78430;SDS011;67727;50.236;22.452;2024-02-23T00:01:05;5.50;;;4.20;;
78430;SDS011;67727;50.236;22.452;2024-02-23T00:03:50;7.80;;;4.70;;
78430;SDS011;67727;50.236;22.452;2024-02-23T00:06:17;6.00;;;4.90;;
78430;SDS011;67727;50.236;22.452;2024-02-23T00:08:44;7.60;;;5.20;;
78430;SDS011;67727;50.236;22.452;2024-02-23T00:11:11;7.60;;;4.90;;
78430;SDS011;67727;50.236;22.452;2024-02-23T00:13:38;6.00;;;4.60;;
78430;SDS011;67727;50.236;22.452;2024-02-23T00:16:05;6.70;;;5.40;;
78430;SDS011;67727;50.236;22.452;2024-02-23T00:18:32;7.20;;;5.20;;
78430;SDS011;67727;50.236;22.452;2024-02-23T00:20:59;6.80;;;4.70;;
78430;SDS011;67727;50.236;22.452;2024-02-23T00:23:26;6.10;;;4.90;;
78430;SDS011;67727;50.236;22.452;2024-02-23T00:25:55;6.60;;;5.50;;
78430;SDS011;67727;50.236;22.452;2024-02-23T00:28:22;7.00;;;5.30;;
78430;SDS011;67727;50.236;22.452;2024-02-23T00:30:49;7.70;;;5.80;;
78430;SDS011;67727;50.236;22.452;2024-02-23T00:33:16;7.00;;;5.60;;
78430;SDS011;67727;50.236;22.452;2024-02-23T00:35:42;6.70;;;5.40;;
78430;SDS011;67727;50.236;22.452;2024-02-23T00:38:09;6.60;;;5.50;;
78430;SDS011;67727;50.236;22.452;2024-02-23T00:40:36;7.70;;;5.00;;
78430;SDS011;67727;50.236;22.452;2024-02-23T00:45:31;6.50;;;5.20;;
78430;SDS011;67727;50.236;22.452;2024-02-23T00:47:57;5.90;;;4.80;;
78430;SDS011;67727;50.236;22.452;2024-02-23T00:52:55;5.80;;;4.90;;
78430;SDS011;67727;50.236;22.452;2024-02-23T00:55:22;7.00;;;4.70;;
78430;SDS011;67727;50.236;22.452;2024-02-23T00:57:51;6.90;;;5.20;;
78430;SDS011;67727;50.236;22.452;2024-02-23T01:00:18;7.20;;;5.00;;
78430;SDS011;67727;50.236;22.452;2024-02-23T01:02:45;6.00;;;4.60;;
78430;SDS011;67727;50.236;22.452;2024-02-23T01:05:12;7.80;;;5.00;;
78430;SDS011;67727;50.236;22.452;2024-02-23T01:07:39;5.60;;;4.50;;
78430;SDS011;67727;50.236;22.452;2024-02-23T01:10:07;7.00;;;6.30;;
78430;SDS011;67727;50.236;22.452;2024-02-23T01:12:41;6.50;;;5.00;;
78430;SDS011;67727;50.236;22.452;2024-02-23T01:15:08;7.30;;;5.10;;
78430;SDS011;67727;50.236;22.452;2024-02-23T01:17:35;5.40;;;4.00;;
78430;SDS011;67727;50.236;22.452;2024-02-23T01:20:02;6.60;;;5.00;;
78430;SDS011;67727;50.236;22.452;2024-02-23T01:22:29;5.50;;;4.70;;
78430;SDS011;67727;50.236;22.452;2024-02-23T01:24:56;6.20;;;4.60;;
78430;SDS011;67727;50.236;22.452;2024-02-23T01:27:23;6.10;;;4.90;;
78430;SDS011;67727;50.236;22.452;2024-02-23T01:29:50;5.70;;;4.40;;
78430;SDS011;67727;50.236;22.452;2024-02-23T01:32:17;5.30;;;4.20;;
78430;SDS011;67727;50.236;22.452;2024-02-23T01:34:44;6.30;;;4.50;;
78430;SDS011;67727;50.236;22.452;2024-02-23T01:37:11;6.70;;;4.70;;
78430;SDS011;67727;50.236;22.452;2024-02-23T01:39:38;7.00;;;5.30;;
78430;SDS011;67727;50.236;22.452;2024-02-23T01:42:05;6.70;;;4.30;;
78430;SDS011;67727;50.236;22.452;2024-02-23T01:44:32;5.90;;;4.60;;
78430;SDS011;67727;50.236;22.452;2024-02-23T01:46:58;6.50;;;4.70;;
78430;SDS011;67727;50.236;22.452;2024-02-23T01:49:25;5.40;;;4.20;;
78430;SDS011;67727;50.236;22.452;2024-02-23T01:51:58;5.70;;;4.20;;
78430;SDS011;67727;50.236;22.452;2024-02-23T01:54:24;5.90;;;5.10;;
78430;SDS011;67727;50.236;22.452;2024-02-23T01:56:52;5.80;;;4.30;;
78430;SDS011;67727;50.236;22.452;2024-02-23T01:59:19;6.50;;;4.20;;
78430;SDS011;67727;50.236;22.452;2024-02-23T02:01:46;8.20;;;4.70;;
78430;SDS011;67727;50.236;22.452;2024-02-23T02:04:13;8.50;;;4.80;;
78430;SDS011;67727;50.236;22.452;2024-02-23T02:06:40;5.00;;;4.50;;
78430;SDS011;67727;50.236;22.452;2024-02-23T02:09:08;5.80;;;4.40;;
78430;SDS011;67727;50.236;22.452;2024-02-23T02:11:35;7.20;;;4.70;;
78430;SDS011;67727;50.236;22.452;2024-02-23T02:14:11;7.80;;;4.80;;
78430;SDS011;67727;50.236;22.452;2024-02-23T02:16:38;5.20;;;4.10;;
78430;SDS011;67727;50.236;22.452;2024-02-23T02:19:05;8.30;;;5.60;;
78430;SDS011;67727;50.236;22.452;2024-02-23T02:21:33;7.50;;;5.20;;
78430;SDS011;67727;50.236;22.452;2024-02-23T02:24:00;6.90;;;4.90;;
78430;SDS011;67727;50.236;22.452;2024-02-23T02:26:27;6.60;;;4.40;;
78430;SDS011;67727;50.236;22.452;2024-02-23T02:28:54;7.70;;;4.50;;
78430;SDS011;67727;50.236;22.452;2024-02-23T02:31:20;7.00;;;5.20;;
78430;SDS011;67727;50.236;22.452;2024-02-23T02:33:47;7.50;;;5.00;;
78430;SDS011;67727;50.236;22.452;2024-02-23T02:36:14;6.30;;;4.90;;
78430;SDS011;67727;50.236;22.452;2024-02-23T02:38:41;6.40;;;4.40;;
78430;SDS011;67727;50.236;22.452;2024-02-23T02:41:08;5.40;;;4.40;;
78430;SDS011;67727;50.236;22.452;2024-02-23T02:43:35;5.90;;;4.50;;
78430;SDS011;67727;50.236;22.452;2024-02-23T02:46:02;5.20;;;4.60;;
78430;SDS011;67727;50.236;22.452;2024-02-23T02:48:29;8.10;;;4.90;;
78430;SDS011;67727;50.236;22.452;2024-02-23T02:50:56;5.90;;;4.40;;
78430;SDS011;67727;50.236;22.452;2024-02-23T02:53:23;7.70;;;5.30;;
78430;SDS011;67727;50.236;22.452;2024-02-23T02:55:50;6.90;;;5.00;;
78430;SDS011;67727;50.236;22.452;2024-02-23T02:58:17;5.60;;;4.00;;
78430;SDS011;67727;50.236;22.452;2024-02-23T03:00:44;9.30;;;4.80;;
78430;SDS011;67727;50.236;22.452;2024-02-23T03:03:11;6.00;;;4.30;;
78430;SDS011;67727;50.236;22.452;2024-02-23T03:05:39;9.50;;;4.70;;
78430;SDS011;67727;50.236;22.452;2024-02-23T03:08:06;5.50;;;4.30;;
78430;SDS011;67727;50.236;22.452;2024-02-23T03:10:33;7.60;;;4.50;;
78430;SDS011;67727;50.236;22.452;2024-02-23T03:13:00;6.60;;;5.20;;
78430;SDS011;67727;50.236;22.452;2024-02-23T03:15:27;7.40;;;5.10;;
78430;SDS011;67727;50.236;22.452;2024-02-23T03:17:55;13.30;;;4.30;;
78430;SDS011;67727;50.236;22.452;2024-02-23T03:20:22;6.10;;;4.20;;
78430;SDS011;67727;50.236;22.452;2024-02-23T03:22:49;5.10;;;4.20;;
78430;SDS011;67727;50.236;22.452;2024-02-23T03:25:16;6.90;;;4.80;;
78430;SDS011;67727;50.236;22.452;2024-02-23T03:27:43;6.70;;;4.20;;
78430;SDS011;67727;50.236;22.452;2024-02-23T03:30:10;6.40;;;4.30;;
78430;SDS011;67727;50.236;22.452;2024-02-23T03:32:37;6.00;;;4.90;;
78430;SDS011;67727;50.236;22.452;2024-02-23T03:35:06;5.50;;;4.10;;
78430;SDS011;67727;50.236;22.452;2024-02-23T03:37:34;7.00;;;4.40;;
78430;SDS011;67727;50.236;22.452;2024-02-23T03:40:01;6.60;;;4.40;;
78430;SDS011;67727;50.236;22.452;2024-02-23T03:42:28;6.80;;;4.70;;
78430;SDS011;67727;50.236;22.452;2024-02-23T03:44:56;6.70;;;4.40;;
78430;SDS011;67727;50.236;22.452;2024-02-23T03:47:23;9.80;;;4.30;;
78430;SDS011;67727;50.236;22.452;2024-02-23T03:49:50;6.00;;;4.10;;
78430;SDS011;67727;50.236;22.452;2024-02-23T03:52:16;5.40;;;4.10;;
78430;SDS011;67727;50.236;22.452;2024-02-23T03:54:44;5.60;;;4.10;;
78430;SDS011;67727;50.236;22.452;2024-02-23T03:57:11;4.90;;;3.60;;
78430;SDS011;67727;50.236;22.452;2024-02-23T03:59:37;5.20;;;4.20;;
78430;SDS011;67727;50.236;22.452;2024-02-23T04:02:04;5.10;;;4.60;;
78430;SDS011;67727;50.236;22.452;2024-02-23T04:04:32;5.00;;;4.00;;
78430;SDS011;67727;50.236;22.452;2024-02-23T04:09:26;6.30;;;3.90;;
78430;SDS011;67727;50.236;22.452;2024-02-23T04:11:53;5.20;;;3.90;;
78430;SDS011;67727;50.236;22.452;2024-02-23T04:14:21;4.60;;;3.60;;
78430;SDS011;67727;50.236;22.452;2024-02-23T04:16:47;6.10;;;4.50;;
78430;SDS011;67727;50.236;22.452;2024-02-23T04:19:14;5.40;;;3.80;;
78430;SDS011;67727;50.236;22.452;2024-02-23T04:21:41;6.00;;;3.70;;
78430;SDS011;67727;50.236;22.452;2024-02-23T04:24:08;5.40;;;4.00;;
78430;SDS011;67727;50.236;22.452;2024-02-23T04:26:36;4.90;;;3.50;;
78430;SDS011;67727;50.236;22.452;2024-02-23T04:29:03;5.10;;;3.60;;
78430;SDS011;67727;50.236;22.452;2024-02-23T04:31:30;5.50;;;3.80;;
78430;SDS011;67727;50.236;22.452;2024-02-23T04:33:57;5.70;;;3.90;;
78430;SDS011;67727;50.236;22.452;2024-02-23T04:36:24;5.20;;;4.50;;
78430;SDS011;67727;50.236;22.452;2024-02-23T04:38:50;5.50;;;3.70;;
78430;SDS011;67727;50.236;22.452;2024-02-23T04:41:21;5.60;;;4.40;;
78430;SDS011;67727;50.236;22.452;2024-02-23T04:43:48;6.20;;;3.70;;
78430;SDS011;67727;50.236;22.452;2024-02-23T04:46:16;6.00;;;4.70;;
78430;SDS011;67727;50.236;22.452;2024-02-23T04:48:43;4.90;;;4.00;;
78430;SDS011;67727;50.236;22.452;2024-02-23T04:51:10;5.10;;;3.90;;
78430;SDS011;67727;50.236;22.452;2024-02-23T04:53:37;4.70;;;3.70;;
78430;SDS011;67727;50.236;22.452;2024-02-23T04:58:32;4.80;;;3.80;;
78430;SDS011;67727;50.236;22.452;2024-02-23T05:00:58;5.50;;;4.40;;
78430;SDS011;67727;50.236;22.452;2024-02-23T05:03:25;5.70;;;3.70;;
78430;SDS011;67727;50.236;22.452;2024-02-23T05:05:53;5.20;;;3.70;;
78430;SDS011;67727;50.236;22.452;2024-02-23T05:08:20;6.30;;;4.50;;
78430;SDS011;67727;50.236;22.452;2024-02-23T05:10:47;6.60;;;3.60;;
78430;SDS011;67727;50.236;22.452;2024-02-23T05:13:14;4.90;;;3.40;;
78430;SDS011;67727;50.236;22.452;2024-02-23T05:15:41;5.40;;;4.40;;
78430;SDS011;67727;50.236;22.452;2024-02-23T05:18:08;6.70;;;3.50;;
78430;SDS011;67727;50.236;22.452;2024-02-23T05:20:35;5.70;;;4.20;;
78430;SDS011;67727;50.236;22.452;2024-02-23T05:23:02;7.20;;;4.60;;
78430;SDS011;67727;50.236;22.452;2024-02-23T05:25:29;6.30;;;4.00;;
78430;SDS011;67727;50.236;22.452;2024-02-23T05:27:56;4.90;;;3.90;;
78430;SDS011;67727;50.236;22.452;2024-02-23T05:30:24;5.50;;;3.70;;
78430;SDS011;67727;50.236;22.452;2024-02-23T05:32:51;7.50;;;4.00;;
78430;SDS011;67727;50.236;22.452;2024-02-23T05:35:19;6.10;;;4.40;;
78430;SDS011;67727;50.236;22.452;2024-02-23T05:37:46;6.20;;;4.00;;
78430;SDS011;67727;50.236;22.452;2024-02-23T05:40:12;7.20;;;4.80;;
78430;SDS011;67727;50.236;22.452;2024-02-23T05:42:40;7.30;;;4.10;;
78430;SDS011;67727;50.236;22.452;2024-02-23T05:45:07;7.70;;;5.00;;
78430;SDS011;67727;50.236;22.452;2024-02-23T05:47:38;5.30;;;4.30;;
78430;SDS011;67727;50.236;22.452;2024-02-23T05:52:33;7.20;;;4.10;;
78430;SDS011;67727;50.236;22.452;2024-02-23T05:55:00;8.30;;;4.50;;
78430;SDS011;67727;50.236;22.452;2024-02-23T05:57:27;4.90;;;3.90;;
78430;SDS011;67727;50.236;22.452;2024-02-23T05:59:54;4.40;;;3.60;;
78430;SDS011;67727;50.236;22.452;2024-02-23T06:02:22;6.00;;;4.40;;
78430;SDS011;67727;50.236;22.452;2024-02-23T06:04:49;6.20;;;4.30;;
78430;SDS011;67727;50.236;22.452;2024-02-23T06:07:16;6.90;;;4.40;;
78430;SDS011;67727;50.236;22.452;2024-02-23T06:09:43;10.10;;;5.60;;
78430;SDS011;67727;50.236;22.452;2024-02-23T06:12:10;7.40;;;4.40;;
78430;SDS011;67727;50.236;22.452;2024-02-23T06:14:37;6.60;;;4.20;;
78430;SDS011;67727;50.236;22.452;2024-02-23T06:17:04;6.40;;;5.10;;
78430;SDS011;67727;50.236;22.452;2024-02-23T06:19:33;6.50;;;4.30;;
78430;SDS011;67727;50.236;22.452;2024-02-23T06:22:00;8.00;;;5.10;;
78430;SDS011;67727;50.236;22.452;2024-02-23T06:24:27;8.70;;;5.00;;
78430;SDS011;67727;50.236;22.452;2024-02-23T06:26:54;7.60;;;4.90;;
78430;SDS011;67727;50.236;22.452;2024-02-23T06:29:20;8.80;;;5.20;;
78430;SDS011;67727;50.236;22.452;2024-02-23T06:31:47;8.50;;;6.10;;
78430;SDS011;67727;50.236;22.452;2024-02-23T06:34:16;7.70;;;5.10;;
78430;SDS011;67727;50.236;22.452;2024-02-23T06:36:43;7.30;;;5.00;;
78430;SDS011;67727;50.236;22.452;2024-02-23T06:39:10;6.30;;;5.10;;
78430;SDS011;67727;50.236;22.452;2024-02-23T06:41:40;6.20;;;5.00;;
78430;SDS011;67727;50.236;22.452;2024-02-23T06:44:07;10.90;;;8.60;;
78430;SDS011;67727;50.236;22.452;2024-02-23T06:46:33;8.90;;;5.90;;
78430;SDS011;67727;50.236;22.452;2024-02-23T06:49:00;7.00;;;4.70;;
78430;SDS011;67727;50.236;22.452;2024-02-23T06:51:27;7.20;;;4.70;;
78430;SDS011;67727;50.236;22.452;2024-02-23T06:53:54;6.90;;;5.00;;
78430;SDS011;67727;50.236;22.452;2024-02-23T06:56:23;6.50;;;5.00;;
78430;SDS011;67727;50.236;22.452;2024-02-23T06:58:50;6.70;;;5.00;;
78430;SDS011;67727;50.236;22.452;2024-02-23T07:01:16;7.80;;;3.90;;
78430;SDS011;67727;50.236;22.452;2024-02-23T07:03:43;7.60;;;4.50;;
78430;SDS011;67727;50.236;22.452;2024-02-23T07:06:11;5.00;;;3.80;;
78430;SDS011;67727;50.236;22.452;2024-02-23T07:08:39;5.70;;;4.70;;
78430;SDS011;67727;50.236;22.452;2024-02-23T07:11:05;7.90;;;5.10;;
78430;SDS011;67727;50.236;22.452;2024-02-23T07:13:32;6.80;;;4.30;;
78430;SDS011;67727;50.236;22.452;2024-02-23T07:16:00;6.50;;;4.40;;
78430;SDS011;67727;50.236;22.452;2024-02-23T07:18:27;6.80;;;5.40;;
78430;SDS011;67727;50.236;22.452;2024-02-23T07:20:53;7.40;;;5.20;;
78430;SDS011;67727;50.236;22.452;2024-02-23T07:23:20;7.80;;;5.60;;
78430;SDS011;67727;50.236;22.452;2024-02-23T07:25:49;10.50;;;6.10;;
78430;SDS011;67727;50.236;22.452;2024-02-23T07:28:17;9.20;;;5.50;;
78430;SDS011;67727;50.236;22.452;2024-02-23T07:30:46;6.20;;;4.60;;
78430;SDS011;67727;50.236;22.452;2024-02-23T07:33:13;6.80;;;5.30;;
78430;SDS011;67727;50.236;22.452;2024-02-23T07:35:40;7.30;;;4.80;;
78430;SDS011;67727;50.236;22.452;2024-02-23T07:38:07;7.50;;;5.10;;
78430;SDS011;67727;50.236;22.452;2024-02-23T07:40:34;6.80;;;5.00;;
78430;SDS011;67727;50.236;22.452;2024-02-23T07:43:01;12.30;;;9.20;;
78430;SDS011;67727;50.236;22.452;2024-02-23T07:45:27;9.10;;;7.00;;
78430;SDS011;67727;50.236;22.452;2024-02-23T07:47:54;8.00;;;6.70;;
78430;SDS011;67727;50.236;22.452;2024-02-23T07:50:21;10.30;;;6.50;;
78430;SDS011;67727;50.236;22.452;2024-02-23T07:52:48;8.80;;;7.10;;
78430;SDS011;67727;50.236;22.452;2024-02-23T07:55:15;8.30;;;6.40;;
78430;SDS011;67727;50.236;22.452;2024-02-23T08:00:09;6.60;;;5.00;;
78430;SDS011;67727;50.236;22.452;2024-02-23T08:02:36;7.50;;;4.60;;
78430;SDS011;67727;50.236;22.452;2024-02-23T08:05:04;9.00;;;4.70;;
78430;SDS011;67727;50.236;22.452;2024-02-23T08:07:31;6.30;;;4.80;;
78430;SDS011;67727;50.236;22.452;2024-02-23T08:09:58;7.80;;;5.60;;
78430;SDS011;67727;50.236;22.452;2024-02-23T08:12:25;9.00;;;6.70;;
78430;SDS011;67727;50.236;22.452;2024-02-23T08:17:20;7.60;;;5.40;;
78430;SDS011;67727;50.236;22.452;2024-02-23T08:19:47;6.20;;;5.20;;
78430;SDS011;67727;50.236;22.452;2024-02-23T08:22:13;8.00;;;5.50;;
78430;SDS011;67727;50.236;22.452;2024-02-23T08:24:40;8.70;;;6.40;;
78430;SDS011;67727;50.236;22.452;2024-02-23T08:27:07;6.50;;;4.60;;
78430;SDS011;67727;50.236;22.452;2024-02-23T08:29:37;6.20;;;4.70;;
78430;SDS011;67727;50.236;22.452;2024-02-23T08:32:04;9.50;;;7.60;;
78430;SDS011;67727;50.236;22.452;2024-02-23T08:34:31;7.10;;;5.60;;
78430;SDS011;67727;50.236;22.452;2024-02-23T08:36:58;10.50;;;5.90;;
78430;SDS011;67727;50.236;22.452;2024-02-23T08:39:26;8.80;;;5.20;;
78430;SDS011;67727;50.236;22.452;2024-02-23T08:41:52;6.70;;;3.90;;
78430;SDS011;67727;50.236;22.452;2024-02-23T08:44:19;9.60;;;5.60;;
78430;SDS011;67727;50.236;22.452;2024-02-23T08:46:46;8.50;;;5.50;;
78430;SDS011;67727;50.236;22.452;2024-02-23T08:49:14;6.70;;;4.50;;
78430;SDS011;67727;50.236;22.452;2024-02-23T08:51:41;5.80;;;4.50;;
78430;SDS011;67727;50.236;22.452;2024-02-23T08:54:08;7.80;;;5.00;;
78430;SDS011;67727;50.236;22.452;2024-02-23T08:56:38;6.90;;;4.60;;
78430;SDS011;67727;50.236;22.452;2024-02-23T08:59:05;5.60;;;4.40;;
78430;SDS011;67727;50.236;22.452;2024-02-23T09:01:32;9.20;;;5.70;;
78430;SDS011;67727;50.236;22.452;2024-02-23T09:03:59;6.80;;;4.20;;
78430;SDS011;67727;50.236;22.452;2024-02-23T09:06:26;5.30;;;3.90;;
78430;SDS011;67727;50.236;22.452;2024-02-23T09:08:53;8.40;;;4.80;;
78430;SDS011;67727;50.236;22.452;2024-02-23T09:11:20;5.80;;;4.20;;
78430;SDS011;67727;50.236;22.452;2024-02-23T09:13:47;7.20;;;4.60;;
78430;SDS011;67727;50.236;22.452;2024-02-23T09:16:14;6.60;;;4.20;;
78430;SDS011;67727;50.236;22.452;2024-02-23T09:18:41;5.30;;;3.70;;
78430;SDS011;67727;50.236;22.452;2024-02-23T09:21:08;4.60;;;3.30;;
78430;SDS011;67727;50.236;22.452;2024-02-23T09:23:35;5.90;;;3.90;;
78430;SDS011;67727;50.236;22.452;2024-02-23T09:26:08;5.20;;;3.90;;
78430;SDS011;67727;50.236;22.452;2024-02-23T09:28:35;5.20;;;3.50;;
78430;SDS011;67727;50.236;22.452;2024-02-23T09:31:02;4.20;;;3.40;;
78430;SDS011;67727;50.236;22.452;2024-02-23T09:33:31;5.50;;;3.80;;
78430;SDS011;67727;50.236;22.452;2024-02-23T09:35:58;6.50;;;4.00;;
78430;SDS011;67727;50.236;22.452;2024-02-23T09:38:25;5.10;;;3.60;;
78430;SDS011;67727;50.236;22.452;2024-02-23T09:40:52;5.60;;;4.30;;
78430;SDS011;67727;50.236;22.452;2024-02-23T09:43:22;4.30;;;3.80;;
78430;SDS011;67727;50.236;22.452;2024-02-23T09:45:51;4.80;;;3.70;;
78430;SDS011;67727;50.236;22.452;2024-02-23T09:48:18;4.90;;;3.40;;
78430;SDS011;67727;50.236;22.452;2024-02-23T09:50:45;4.70;;;3.60;;
78430;SDS011;67727;50.236;22.452;2024-02-23T09:53:13;5.60;;;3.80;;
78430;SDS011;67727;50.236;22.452;2024-02-23T09:55:42;4.30;;;3.60;;
78430;SDS011;67727;50.236;22.452;2024-02-23T09:58:11;7.00;;;4.00;;
78430;SDS011;67727;50.236;22.452;2024-02-23T10:00:41;6.10;;;4.00;;
78430;SDS011;67727;50.236;22.452;2024-02-23T10:03:08;6.10;;;3.70;;
78430;SDS011;67727;50.236;22.452;2024-02-23T10:05:35;4.70;;;3.70;;
78430;SDS011;67727;50.236;22.452;2024-02-23T10:08:02;5.40;;;3.30;;
78430;SDS011;67727;50.236;22.452;2024-02-23T10:10:30;4.80;;;3.40;;
78430;SDS011;67727;50.236;22.452;2024-02-23T10:13:00;4.20;;;3.10;;
78430;SDS011;67727;50.236;22.452;2024-02-23T10:15:30;3.50;;;3.00;;
78430;SDS011;67727;50.236;22.452;2024-02-23T10:17:58;5.10;;;3.30;;
78430;SDS011;67727;50.236;22.452;2024-02-23T10:20:25;5.50;;;3.30;;
78430;SDS011;67727;50.236;22.452;2024-02-23T10:22:52;5.10;;;3.70;;
78430;SDS011;67727;50.236;22.452;2024-02-23T10:25:20;5.40;;;3.70;;
78430;SDS011;67727;50.236;22.452;2024-02-23T10:35:15;6.40;;;3.10;;
78430;SDS011;67727;50.236;22.452;2024-02-23T10:37:48;5.10;;;3.40;;
78430;SDS011;67727;50.236;22.452;2024-02-23T10:40:20;3.20;;;2.70;;
78430;SDS011;67727;50.236;22.452;2024-02-23T10:42:49;3.20;;;2.90;;
78430;SDS011;67727;50.236;22.452;2024-02-23T10:45:18;6.30;;;2.90;;
78430;SDS011;67727;50.236;22.452;2024-02-23T10:47:47;4.30;;;3.00;;
78430;SDS011;67727;50.236;22.452;2024-02-23T10:50:14;4.10;;;2.90;;
78430;SDS011;67727;50.236;22.452;2024-02-23T10:52:42;4.30;;;3.30;;
78430;SDS011;67727;50.236;22.452;2024-02-23T10:55:09;4.20;;;3.40;;
78430;SDS011;67727;50.236;22.452;2024-02-23T10:57:36;3.70;;;3.00;;
78430;SDS011;67727;50.236;22.452;2024-02-23T11:00:05;3.80;;;3.20;;
78430;SDS011;67727;50.236;22.452;2024-02-23T11:02:40;4.20;;;2.70;;
78430;SDS011;67727;50.236;22.452;2024-02-23T11:05:15;8.80;;;3.30;;
78430;SDS011;67727;50.236;22.452;2024-02-23T11:07:45;3.10;;;2.80;;
78430;SDS011;67727;50.236;22.452;2024-02-23T11:10:17;3.90;;;3.00;;
78430;SDS011;67727;50.236;22.452;2024-02-23T11:12:44;3.80;;;3.10;;
78430;SDS011;67727;50.236;22.452;2024-02-23T11:15:25;4.20;;;3.20;;
78430;SDS011;67727;50.236;22.452;2024-02-23T11:17:58;3.50;;;2.60;;
78430;SDS011;67727;50.236;22.452;2024-02-23T11:20:33;6.30;;;3.60;;
78430;SDS011;67727;50.236;22.452;2024-02-23T11:23:01;6.40;;;3.60;;
78430;SDS011;67727;50.236;22.452;2024-02-23T11:25:29;3.50;;;3.00;;
78430;SDS011;67727;50.236;22.452;2024-02-23T11:27:56;4.60;;;3.60;;
78430;SDS011;67727;50.236;22.452;2024-02-23T11:30:23;4.50;;;3.50;;
78430;SDS011;67727;50.236;22.452;2024-02-23T11:32:52;4.50;;;3.30;;
78430;SDS011;67727;50.236;22.452;2024-02-23T11:35:26;4.00;;;3.20;;
78430;SDS011;67727;50.236;22.452;2024-02-23T11:37:54;5.30;;;3.30;;
78430;SDS011;67727;50.236;22.452;2024-02-23T11:40:32;5.90;;;3.90;;
78430;SDS011;67727;50.236;22.452;2024-02-23T11:42:59;4.40;;;3.50;;
78430;SDS011;67727;50.236;22.452;2024-02-23T11:45:30;4.40;;;3.50;;
78430;SDS011;67727;50.236;22.452;2024-02-23T11:47:57;4.60;;;3.60;;
78430;SDS011;67727;50.236;22.452;2024-02-23T11:50:25;4.90;;;3.90;;
78430;SDS011;67727;50.236;22.452;2024-02-23T11:52:52;7.20;;;4.30;;
78430;SDS011;67727;50.236;22.452;2024-02-23T11:55:20;5.50;;;4.10;;
78430;SDS011;67727;50.236;22.452;2024-02-23T11:57:50;4.30;;;3.40;;
78430;SDS011;67727;50.236;22.452;2024-02-23T12:00:18;4.40;;;3.10;;
78430;SDS011;67727;50.236;22.452;2024-02-23T12:02:45;17.70;;;9.90;;
78430;SDS011;67727;50.236;22.452;2024-02-23T12:05:15;12.10;;;7.50;;
78430;SDS011;67727;50.236;22.452;2024-02-23T12:07:42;10.30;;;6.40;;
78430;SDS011;67727;50.236;22.452;2024-02-23T12:10:09;17.90;;;10.20;;
78430;SDS011;67727;50.236;22.452;2024-02-23T12:12:37;10.90;;;6.10;;
78430;SDS011;67727;50.236;22.452;2024-02-23T12:15:05;18.60;;;8.70;;
78430;SDS011;67727;50.236;22.452;2024-02-23T12:17:35;17.80;;;10.40;;
78430;SDS011;67727;50.236;22.452;2024-02-23T12:20:03;7.60;;;4.80;;
78430;SDS011;67727;50.236;22.452;2024-02-23T12:22:30;13.20;;;8.30;;
78430;SDS011;67727;50.236;22.452;2024-02-23T12:24:58;6.10;;;4.60;;
78430;SDS011;67727;50.236;22.452;2024-02-23T12:27:26;14.80;;;9.40;;
78430;SDS011;67727;50.236;22.452;2024-02-23T12:29:55;10.50;;;6.80;;
78430;SDS011;67727;50.236;22.452;2024-02-23T12:32:22;19.00;;;11.20;;
78430;SDS011;67727;50.236;22.452;2024-02-23T12:34:50;10.50;;;4.80;;
78430;SDS011;67727;50.236;22.452;2024-02-23T12:37:17;7.50;;;4.10;;
78430;SDS011;67727;50.236;22.452;2024-02-23T12:39:45;6.40;;;4.30;;
78430;SDS011;67727;50.236;22.452;2024-02-23T12:42:11;17.70;;;8.00;;
78430;SDS011;67727;50.236;22.452;2024-02-23T12:44:38;6.30;;;3.80;;
78430;SDS011;67727;50.236;22.452;2024-02-23T12:47:05;21.60;;;9.40;;
78430;SDS011;67727;50.236;22.452;2024-02-23T12:49:32;5.40;;;3.40;;
78430;SDS011;67727;50.236;22.452;2024-02-23T12:51:59;5.40;;;4.30;;
78430;SDS011;67727;50.236;22.452;2024-02-23T12:54:27;9.80;;;3.90;;
78430;SDS011;67727;50.236;22.452;2024-02-23T12:56:54;5.30;;;3.10;;
78430;SDS011;67727;50.236;22.452;2024-02-23T12:59:21;5.20;;;3.80;;
78430;SDS011;67727;50.236;22.452;2024-02-23T13:01:48;6.00;;;3.60;;
78430;SDS011;67727;50.236;22.452;2024-02-23T13:04:15;4.90;;;3.50;;
78430;SDS011;67727;50.236;22.452;2024-02-23T13:06:41;4.60;;;3.30;;
78430;SDS011;67727;50.236;22.452;2024-02-23T13:09:09;7.50;;;3.50;;
78430;SDS011;67727;50.236;22.452;2024-02-23T13:11:36;4.80;;;4.00;;
78430;SDS011;67727;50.236;22.452;2024-02-23T13:14:04;5.50;;;4.40;;
78430;SDS011;67727;50.236;22.452;2024-02-23T13:16:31;4.90;;;3.90;;
78430;SDS011;67727;50.236;22.452;2024-02-23T13:18:58;6.00;;;4.50;;
78430;SDS011;67727;50.236;22.452;2024-02-23T13:21:25;6.10;;;3.60;;
78430;SDS011;67727;50.236;22.452;2024-02-23T13:23:52;3.20;;;2.70;;
78430;SDS011;67727;50.236;22.452;2024-02-23T13:26:19;5.30;;;4.00;;
78430;SDS011;67727;50.236;22.452;2024-02-23T13:28:46;7.20;;;4.00;;
78430;SDS011;67727;50.236;22.452;2024-02-23T13:31:13;4.20;;;3.70;;
78430;SDS011;67727;50.236;22.452;2024-02-23T13:33:41;5.50;;;3.90;;
78430;SDS011;67727;50.236;22.452;2024-02-23T13:36:08;5.60;;;3.70;;
78430;SDS011;67727;50.236;22.452;2024-02-23T13:38:35;8.20;;;4.60;;
78430;SDS011;67727;50.236;22.452;2024-02-23T13:41:04;6.50;;;4.50;;
78430;SDS011;67727;50.236;22.452;2024-02-23T13:43:32;5.10;;;3.80;;
78430;SDS011;67727;50.236;22.452;2024-02-23T13:46:00;6.70;;;4.00;;
78430;SDS011;67727;50.236;22.452;2024-02-23T13:48:27;5.70;;;3.80;;
78430;SDS011;67727;50.236;22.452;2024-02-23T13:50:54;6.00;;;3.80;;
78430;SDS011;67727;50.236;22.452;2024-02-23T13:53:21;5.60;;;4.10;;
78430;SDS011;67727;50.236;22.452;2024-02-23T13:55:48;5.20;;;4.00;;
78430;SDS011;67727;50.236;22.452;2024-02-23T13:58:16;5.60;;;4.20;;
78430;SDS011;67727;50.236;22.452;2024-02-23T14:00:43;8.00;;;5.40;;
78430;SDS011;67727;50.236;22.452;2024-02-23T14:03:12;8.00;;;4.90;;
78430;SDS011;67727;50.236;22.452;2024-02-23T14:05:44;8.90;;;5.90;;
78430;SDS011;67727;50.236;22.452;2024-02-23T14:08:12;7.10;;;4.90;;
78430;SDS011;67727;50.236;22.452;2024-02-23T14:10:40;8.90;;;5.30;;
78430;SDS011;67727;50.236;22.452;2024-02-23T14:13:07;8.80;;;6.40;;
78430;SDS011;67727;50.236;22.452;2024-02-23T14:15:34;7.90;;;5.10;;
78430;SDS011;67727;50.236;22.452;2024-02-23T14:18:01;8.00;;;5.50;;
78430;SDS011;67727;50.236;22.452;2024-02-23T14:20:28;9.80;;;6.30;;
78430;SDS011;67727;50.236;22.452;2024-02-23T14:22:55;9.20;;;5.80;;
78430;SDS011;67727;50.236;22.452;2024-02-23T14:25:22;9.60;;;6.40;;
78430;SDS011;67727;50.236;22.452;2024-02-23T14:27:49;10.30;;;5.70;;
78430;SDS011;67727;50.236;22.452;2024-02-23T14:30:16;11.40;;;7.10;;
78430;SDS011;67727;50.236;22.452;2024-02-23T14:32:43;12.30;;;7.50;;
78430;SDS011;67727;50.236;22.452;2024-02-23T14:35:10;8.80;;;6.20;;
78430;SDS011;67727;50.236;22.452;2024-02-23T14:37:37;10.80;;;6.30;;
78430;SDS011;67727;50.236;22.452;2024-02-23T14:40:04;9.10;;;5.80;;
78430;SDS011;67727;50.236;22.452;2024-02-23T14:42:31;9.60;;;6.40;;
78430;SDS011;67727;50.236;22.452;2024-02-23T14:44:58;7.80;;;6.10;;
78430;SDS011;67727;50.236;22.452;2024-02-23T14:47:25;13.30;;;7.90;;
78430;SDS011;67727;50.236;22.452;2024-02-23T14:49:52;17.30;;;9.80;;
78430;SDS011;67727;50.236;22.452;2024-02-23T14:52:19;20.80;;;13.00;;
78430;SDS011;67727;50.236;22.452;2024-02-23T14:54:47;23.80;;;13.40;;
78430;SDS011;67727;50.236;22.452;2024-02-23T14:57:14;20.20;;;11.80;;
78430;SDS011;67727;50.236;22.452;2024-02-23T14:59:41;9.00;;;6.60;;